Terminal Aerodrome Forecast
Issued by NWS

Current Version | Previous Version | Graphics & Text | Print | Product List | Glossary On
Versions: 1 2 3 4 5 6 7 8 9 10 11 12 13 14 15 16 17 18 19
310
FTUS41 KPBZ 011401 AAA
TAFHLG
TAF AMD
KHLG 011401Z 0114/0212 27007KT P6SM SCT015 OVC025
     FM011700 25014G23KT P6SM OVC035
     FM012300 25010KT P6SM OVC040=

USA.gov is the U.S. government's official web portal to all federal, state and local government web resources and services.